createdAt,value
2019-05-23T00:01:20.596Z,93.20
2019-05-23T00:04:14.805Z,92.80
2019-05-23T00:07:03.908Z,92.70
2019-05-23T00:09:53.513Z,93.70
2019-05-23T00:12:44.898Z,93.60
2019-05-23T00:15:32.692Z,93.70
2019-05-23T00:18:04.267Z,93.70
2019-05-23T00:20:34.490Z,93.30
2019-05-23T00:23:05.350Z,93.80
2019-05-23T00:25:36.496Z,94.30
2019-05-23T00:28:07.192Z,94.30
2019-05-23T00:30:47.640Z,94.60
2019-05-23T00:33:18.720Z,94.20
2019-05-23T00:35:48.815Z,94.20
2019-05-23T00:38:19.385Z,94.60
2019-05-23T00:40:50.933Z,94.50
2019-05-23T00:43:21.198Z,95.10
2019-05-23T00:45:51.773Z,94.70
2019-05-23T00:48:22.255Z,94.70
2019-05-23T00:50:52.761Z,95.50
2019-05-23T00:53:23.781Z,95.80
2019-05-23T00:55:53.704Z,95.90
2019-05-23T00:58:23.215Z,95.80
2019-05-23T01:00:54.239Z,95.90
2019-05-23T01:03:27.423Z,96.00
2019-05-23T01:05:57.299Z,96.20
2019-05-23T01:08:30.032Z,95.80
2019-05-23T01:10:59.859Z,95.90
2019-05-23T01:13:29.784Z,95.90
2019-05-23T01:16:00.285Z,96.50
2019-05-23T01:18:29.711Z,96.50
2019-05-23T01:21:01.979Z,96.40
2019-05-23T01:23:33.125Z,96.20
2019-05-23T01:26:02.518Z,96.30
2019-05-23T01:28:32.420Z,96.60
2019-05-23T01:31:04.540Z,96.60
2019-05-23T01:33:33.871Z,96.80
2019-05-23T01:36:05.015Z,96.50
2019-05-23T01:38:36.396Z,96.30
2019-05-23T01:41:06.972Z,96.10
2019-05-23T01:43:36.351Z,96.10
2019-05-23T01:46:06.326Z,96.00
2019-05-23T01:48:36.006Z,96.10
2019-05-23T01:51:05.732Z,96.40
2019-05-23T01:53:36.703Z,96.40
2019-05-23T01:56:07.055Z,96.10
2019-05-23T01:58:36.624Z,96.10
2019-05-23T02:01:06.736Z,96.30
2019-05-23T02:03:36.618Z,96.40
2019-05-23T02:06:06.472Z,96.70
2019-05-23T02:08:36.782Z,96.90
2019-05-23T02:11:07.343Z,96.80
2019-05-23T02:13:37.855Z,96.70
2019-05-23T02:16:07.741Z,96.80
2019-05-23T02:18:37.766Z,96.90
2019-05-23T02:21:07.574Z,96.90
2019-05-23T02:23:37.849Z,96.80
2019-05-23T02:26:08.724Z,97.50
2019-05-23T02:28:38.145Z,97.20
2019-05-23T02:31:08.216Z,97.20
2019-05-23T02:33:37.881Z,97.40
2019-05-23T02:36:07.459Z,98.10
2019-05-23T02:38:47.903Z,97.90
2019-05-23T02:41:18.871Z,97.80
2019-05-23T02:43:50.818Z,98.10
2019-05-23T02:46:22.344Z,98.20
2019-05-23T02:48:54.369Z,97.90
2019-05-23T02:51:28.091Z,98.40
2019-05-23T02:53:59.774Z,98.30
2019-05-23T02:56:32.437Z,98.20
2019-05-23T02:59:09.412Z,98.70
2019-05-23T03:01:59.692Z,98.80
2019-05-23T03:04:31.135Z,99.10
2019-05-23T03:07:02.922Z,99.00
2019-05-23T03:09:34.071Z,99.20
2019-05-23T03:12:05.782Z,99.70
2019-05-23T03:14:36.796Z,99.60
2019-05-23T03:17:11.175Z,99.30
2019-05-23T03:19:50.602Z,99.50
2019-05-23T03:22:31.718Z,99.50
2019-05-23T03:25:04.373Z,99.50
2019-05-23T03:27:40.133Z,99.50
2019-05-23T03:30:12.604Z,99.40
2019-05-23T03:32:43.576Z,99.40
2019-05-23T03:35:15.261Z,99.80
2019-05-23T03:37:45.894Z,99.80
2019-05-23T03:40:15.394Z,99.90
2019-05-23T03:42:46.017Z,99.80
2019-05-23T03:45:17.827Z,99.70
2019-05-23T03:47:47.827Z,99.70
2019-05-23T03:50:19.368Z,99.90
2019-05-23T03:52:50.237Z,99.90
2019-05-23T03:55:21.551Z,99.90
2019-05-23T03:57:52.835Z,99.90
2019-05-23T04:00:23.854Z,99.90
2019-05-23T04:02:53.958Z,99.90
2019-05-23T04:05:24.004Z,99.90
2019-05-23T04:07:54.102Z,99.90
2019-05-23T04:10:24.767Z,99.90
2019-05-23T04:12:54.907Z,99.90
2019-05-23T04:15:25.333Z,99.90
2019-05-23T04:17:55.142Z,99.90
2019-05-23T04:20:24.831Z,99.90
2019-05-23T04:22:54.584Z,99.90
2019-05-23T04:25:24.244Z,99.90
2019-05-23T04:27:54.588Z,99.90
2019-05-23T04:30:24.239Z,99.90
2019-05-23T04:32:55.264Z,99.90
2019-05-23T04:35:25.687Z,99.90
2019-05-23T04:37:55.606Z,99.90
2019-05-23T04:40:25.766Z,99.90
2019-05-23T04:42:55.454Z,99.80
2019-05-23T04:45:26.817Z,99.90
2019-05-23T04:47:56.420Z,99.70
2019-05-23T04:50:26.021Z,99.70
2019-05-23T04:52:55.803Z,99.40
2019-05-23T04:55:26.762Z,99.00
2019-05-23T04:57:58.138Z,98.50
2019-05-23T05:00:28.023Z,98.00
2019-05-23T05:02:57.680Z,97.60
2019-05-23T05:05:27.830Z,97.00
2019-05-23T05:07:57.566Z,96.30
2019-05-23T05:10:27.668Z,96.00
2019-05-23T05:12:57.664Z,95.70
2019-05-23T05:15:27.500Z,95.60
2019-05-23T05:17:57.270Z,95.40
2019-05-23T05:20:26.654Z,94.30
2019-05-23T05:22:55.990Z,93.00
2019-05-23T05:25:26.166Z,92.50
2019-05-23T05:27:55.501Z,91.50
2019-05-23T05:30:26.191Z,90.90
2019-05-23T05:32:56.897Z,90.90
2019-05-23T05:35:27.192Z,91.50
2019-05-23T05:37:57.330Z,91.50
2019-05-23T05:40:26.689Z,92.00
2019-05-23T05:42:56.232Z,92.00
2019-05-23T05:45:25.649Z,92.10
2019-05-23T05:47:57.076Z,92.10
2019-05-23T05:50:26.680Z,92.20
2019-05-23T05:52:56.113Z,91.70
2019-05-23T05:55:25.894Z,91.90
2019-05-23T05:57:55.389Z,91.70
2019-05-23T06:00:29.601Z,91.60
2019-05-23T06:03:05.264Z,91.50
2019-05-23T06:05:39.657Z,91.30
2019-05-23T06:08:11.107Z,91.10
2019-05-23T06:10:40.810Z,91.10
2019-05-23T06:13:10.500Z,90.80
2019-05-23T06:15:40.582Z,90.80
2019-05-23T06:18:10.984Z,90.60
2019-05-23T06:20:45.051Z,90.50
2019-05-23T06:23:14.524Z,90.30
2019-05-23T06:25:44.615Z,89.20
2019-05-23T06:28:15.621Z,89.50
2019-05-23T06:30:46.364Z,90.00
2019-05-23T06:33:23.293Z,89.90
2019-05-23T06:35:47.563Z,89.50
2019-05-23T06:38:17.130Z,88.80
2019-05-23T06:40:46.660Z,86.50
2019-05-23T06:43:16.120Z,86.20
2019-05-23T06:48:26.795Z,84.00
2019-05-23T06:50:56.800Z,83.70
2019-05-23T06:53:26.188Z,83.60
2019-05-23T06:55:55.574Z,84.20
2019-05-23T06:58:25.236Z,83.60
2019-05-23T07:00:55.119Z,83.30
2019-05-23T07:03:40.475Z,83.20
2019-05-23T07:05:56.106Z,82.80
2019-05-23T07:08:35.595Z,81.80
2019-05-23T07:11:05.274Z,82.40
2019-05-23T07:13:36.345Z,81.40
2019-05-23T07:16:06.472Z,81.50
2019-05-23T07:18:36.385Z,79.70
2019-05-23T07:21:07.922Z,80.90
2019-05-23T07:23:37.840Z,80.00
2019-05-23T07:26:11.200Z,79.90
2019-05-23T07:28:41.360Z,77.90
2019-05-23T07:31:12.384Z,76.60
2019-05-23T07:34:01.181Z,75.80
2019-05-23T07:39:20.054Z,73.70
2019-05-23T07:42:01.603Z,72.80
2019-05-23T07:44:48.199Z,72.60
2019-05-23T07:47:15.595Z,71.40
2019-05-23T07:49:46.098Z,71.30
2019-05-23T07:52:15.919Z,70.40
2019-05-23T07:54:53.050Z,69.90
2019-05-23T07:57:23.389Z,69.00
2019-05-23T07:59:54.723Z,68.70
2019-05-23T08:02:31.253Z,65.20
2019-05-23T08:05:00.731Z,64.00
2019-05-23T08:07:32.636Z,64.70
2019-05-23T08:10:02.380Z,58.30
2019-05-23T08:12:32.084Z,62.10
2019-05-23T08:15:01.576Z,59.40
2019-05-23T08:17:31.679Z,60.50
2019-05-23T08:20:01.277Z,60.00
2019-05-23T08:22:30.801Z,59.90
2019-05-23T08:25:00.473Z,58.30
2019-05-23T08:27:30.574Z,57.80
2019-05-23T08:30:02.474Z,58.00
2019-05-23T08:32:31.874Z,58.90
2019-05-23T08:35:01.527Z,57.60
2019-05-23T08:37:32.470Z,57.10
2019-05-23T08:40:02.302Z,57.20
2019-05-23T08:42:32.873Z,57.40
2019-05-23T08:45:04.974Z,57.80
2019-05-23T08:47:35.403Z,55.90
2019-05-23T08:50:08.448Z,53.30
2019-05-23T08:52:38.268Z,52.00
2019-05-23T08:55:25.871Z,53.10
2019-05-23T08:57:56.499Z,51.10
2019-05-23T09:00:28.355Z,51.80
2019-05-23T09:02:59.274Z,49.60
2019-05-23T09:05:30.455Z,46.40
2019-05-23T09:08:00.191Z,47.50
2019-05-23T09:10:30.029Z,48.10
2019-05-23T09:13:01.170Z,50.60
2019-05-23T09:15:30.599Z,45.60
2019-05-23T09:18:00.588Z,45.60
2019-05-23T09:20:30.849Z,46.80
2019-05-23T09:23:00.332Z,46.80
2019-05-23T09:25:31.341Z,45.80
2019-05-23T09:28:01.204Z,44.10
2019-05-23T09:30:31.468Z,44.10
2019-05-23T09:33:01.410Z,45.10
2019-05-23T09:35:31.380Z,45.80
2019-05-23T09:38:00.852Z,44.80
2019-05-23T09:40:30.891Z,43.20
2019-05-23T09:43:00.670Z,42.80
2019-05-23T09:45:30.563Z,43.70
2019-05-23T09:48:00.119Z,44.00
2019-05-23T09:50:29.904Z,43.30
2019-05-23T09:53:06.799Z,43.80
2019-05-23T09:55:39.480Z,43.30
2019-05-23T09:58:09.659Z,43.00
2019-05-23T10:00:42.077Z,41.60
2019-05-23T10:03:14.636Z,41.20
2019-05-23T10:05:44.524Z,43.00
2019-05-23T10:08:14.236Z,43.10
2019-05-23T10:10:44.759Z,43.20
2019-05-23T10:13:15.716Z,42.80
2019-05-23T10:18:34.512Z,42.60
2019-05-23T10:21:04.198Z,42.20
2019-05-23T10:23:34.110Z,41.90
2019-05-23T10:26:03.842Z,40.90
2019-05-23T10:28:33.354Z,41.20
2019-05-23T10:31:04.637Z,39.30
2019-05-23T10:33:34.273Z,40.30
2019-05-23T10:36:04.025Z,40.80
2019-05-23T10:38:33.503Z,39.50
2019-05-23T10:41:10.783Z,39.80
2019-05-23T10:43:40.574Z,40.40
2019-05-23T10:46:15.254Z,40.60
2019-05-23T10:48:44.784Z,40.60
2019-05-23T10:51:14.491Z,40.50
2019-05-23T10:53:44.087Z,39.50
2019-05-23T10:56:13.565Z,39.40
2019-05-23T10:58:43.125Z,40.30
2019-05-23T11:01:16.148Z,39.90
2019-05-23T11:03:45.705Z,40.60
2019-05-23T11:06:18.699Z,41.30
2019-05-23T11:08:51.148Z,39.80
2019-05-23T11:11:35.108Z,40.70
2019-05-23T11:14:09.247Z,40.90
2019-05-23T11:17:04.693Z,39.50
2019-05-23T11:19:43.629Z,41.50
2019-05-23T11:58:07.672Z,29.90
2019-05-23T12:04:18.127Z,28.10
2019-05-23T12:07:04.458Z,27.60
2019-05-23T12:09:34.417Z,27.80
2019-05-23T12:12:04.210Z,27.80
2019-05-23T12:14:36.897Z,26.90
2019-05-23T12:17:15.379Z,28.10
2019-05-23T12:20:03.977Z,28.10
2019-05-23T12:22:42.519Z,28.10
2019-05-23T12:25:22.558Z,27.20
2019-05-23T12:27:56.259Z,27.80
2019-05-23T12:30:31.542Z,27.20
2019-05-23T12:33:01.191Z,26.90
2019-05-23T12:35:32.132Z,25.90
2019-05-23T12:38:05.128Z,26.60
2019-05-23T12:40:34.806Z,26.50
2019-05-23T12:43:05.007Z,26.90
2019-05-23T12:45:34.714Z,27.50
2019-05-23T12:48:05.991Z,28.10
2019-05-23T12:50:53.729Z,28.10
2019-05-23T12:53:24.941Z,26.60
2019-05-23T12:55:55.916Z,26.70
2019-05-23T12:58:27.649Z,26.50
2019-05-23T13:00:58.815Z,28.70
2019-05-23T13:03:30.752Z,28.90
2019-05-23T13:06:00.878Z,28.20
2019-05-23T13:08:30.573Z,26.10
2019-05-23T13:11:01.042Z,23.90
2019-05-23T13:13:35.201Z,23.80
2019-05-23T13:16:05.789Z,22.70
2019-05-23T13:18:36.479Z,21.60
2019-05-23T13:21:06.399Z,23.10
2019-05-23T13:23:37.549Z,25.30
2019-05-23T13:26:07.396Z,25.90
2019-05-23T13:28:37.256Z,25.60
2019-05-23T13:31:06.705Z,24.20
2019-05-23T13:33:36.880Z,22.10
2019-05-23T13:36:06.749Z,21.60
2019-05-23T13:38:36.755Z,20.90
2019-05-23T13:41:06.316Z,20.00
2019-05-23T13:43:36.141Z,20.00
2019-05-23T13:46:05.984Z,21.00
2019-05-23T13:48:35.636Z,21.70
2019-05-23T13:51:05.296Z,22.30
2019-05-23T13:53:35.941Z,23.20
2019-05-23T13:56:06.093Z,25.00
2019-05-23T13:58:35.787Z,26.80
2019-05-23T14:01:09.381Z,25.90
2019-05-23T14:03:39.085Z,25.20
2019-05-23T14:06:14.214Z,25.40
2019-05-23T14:08:42.894Z,27.70
2019-05-23T14:11:12.481Z,27.90
2019-05-23T14:13:42.109Z,28.00
2019-05-23T14:16:12.111Z,26.60
2019-05-23T14:18:42.236Z,23.50
2019-05-23T14:21:11.798Z,22.40
2019-05-23T14:23:41.344Z,23.10
2019-05-23T14:26:12.239Z,23.00
2019-05-23T14:28:42.025Z,23.00
2019-05-23T14:31:13.248Z,22.30
2019-05-23T14:33:50.058Z,24.20
2019-05-23T14:36:37.668Z,24.10
2019-05-23T14:39:10.275Z,23.90
2019-05-23T14:41:45.427Z,23.90
2019-05-23T14:44:12.527Z,22.70
2019-05-23T14:46:59.887Z,20.20
2019-05-23T14:49:31.172Z,20.60
2019-05-23T14:52:06.850Z,20.30
2019-05-23T14:54:40.792Z,20.10
2019-05-23T14:57:10.616Z,19.90
2019-05-23T14:59:40.144Z,20.20
2019-05-23T15:02:11.625Z,19.90
2019-05-23T15:04:41.417Z,19.70
2019-05-23T15:07:11.379Z,19.70
2019-05-23T15:09:41.512Z,19.30
2019-05-23T15:12:11.332Z,19.00
2019-05-23T15:14:41.379Z,19.10
2019-05-23T15:17:12.627Z,18.80
2019-05-23T15:19:45.271Z,19.00
2019-05-23T15:22:13.947Z,19.00
2019-05-23T15:24:43.973Z,18.30
2019-05-23T15:27:14.224Z,18.40
2019-05-23T15:29:43.772Z,18.70
2019-05-23T15:32:13.173Z,17.00
2019-05-23T15:34:43.036Z,16.90
2019-05-23T15:37:13.890Z,18.20
2019-05-23T15:39:43.506Z,17.80
2019-05-23T15:42:13.103Z,17.30
2019-05-23T15:44:42.749Z,18.10
2019-05-23T15:47:12.509Z,17.50
2019-05-23T15:49:43.511Z,18.20
2019-05-23T15:52:34.099Z,17.90
2019-05-23T15:55:06.112Z,19.00
2019-05-23T15:57:40.647Z,19.00
2019-05-23T16:00:18.169Z,18.80
2019-05-23T16:02:52.295Z,18.80
2019-05-23T16:05:21.839Z,19.20
2019-05-23T16:07:51.350Z,17.80
2019-05-23T16:10:21.941Z,18.90
2019-05-23T16:12:51.643Z,18.50
2019-05-23T16:15:21.122Z,19.10
2019-05-23T16:17:51.972Z,18.30
2019-05-23T16:20:23.278Z,18.90
2019-05-23T16:22:56.733Z,17.70
2019-05-23T16:25:28.302Z,17.50
2019-05-23T16:28:01.123Z,18.20
2019-05-23T16:30:32.233Z,17.60
2019-05-23T16:33:02.212Z,17.40
2019-05-23T16:35:33.244Z,18.50
2019-05-23T16:38:02.930Z,19.10
2019-05-23T16:40:32.312Z,19.80
2019-05-23T16:43:01.802Z,19.70
2019-05-23T16:45:31.615Z,20.10
2019-05-23T16:48:01.352Z,19.90
2019-05-23T16:50:30.938Z,18.80
2019-05-23T16:53:00.538Z,18.00
2019-05-23T16:55:32.030Z,18.10
2019-05-23T16:58:05.909Z,18.40
2019-05-23T17:00:53.576Z,17.60
2019-05-23T17:03:36.914Z,18.10
2019-05-23T17:06:20.844Z,18.10
2019-05-23T17:09:07.930Z,19.60
2019-05-23T17:11:38.977Z,18.20
2019-05-23T17:14:12.792Z,18.60
2019-05-23T17:16:46.245Z,20.10
2019-05-23T17:19:17.523Z,21.50
2019-05-23T17:21:51.720Z,21.80
2019-05-23T17:24:25.203Z,22.40
2019-05-23T17:27:01.217Z,24.00
2019-05-23T17:29:38.720Z,23.20
2019-05-23T17:32:10.193Z,24.60
2019-05-23T17:34:40.265Z,24.60
2019-05-23T17:37:10.873Z,24.20
2019-05-23T17:39:45.263Z,23.90
2019-05-23T17:42:14.614Z,25.00
2019-05-23T17:44:44.437Z,25.60
2019-05-23T17:47:14.741Z,26.40
2019-05-23T17:49:44.587Z,26.90
2019-05-23T17:52:15.439Z,27.20
2019-05-23T17:54:45.111Z,27.80
2019-05-23T17:57:15.445Z,28.50
2019-05-23T17:59:45.006Z,29.00
2019-05-23T18:02:15.666Z,29.00
2019-05-23T18:04:45.352Z,29.60
2019-05-23T18:07:15.398Z,30.00
2019-05-23T18:09:48.793Z,30.00
2019-05-23T18:12:19.227Z,30.00
2019-05-23T18:14:48.868Z,30.50
2019-05-23T18:17:18.613Z,30.10
2019-05-23T18:19:48.108Z,29.90
2019-05-23T18:22:18.211Z,30.30
2019-05-23T18:24:47.777Z,30.50
2019-05-23T18:27:17.265Z,30.90
2019-05-23T18:29:47.014Z,31.60
2019-05-23T18:32:18.121Z,32.20
2019-05-23T18:34:47.826Z,33.10
2019-05-23T18:37:17.625Z,33.60
2019-05-23T18:39:47.988Z,34.20
2019-05-23T18:42:17.498Z,34.80
2019-05-23T18:44:47.618Z,35.40
2019-05-23T18:47:50.235Z,36.20
2019-05-23T18:50:20.315Z,36.60
2019-05-23T18:52:51.985Z,37.30
2019-05-23T18:55:22.191Z,37.90
2019-05-23T18:57:52.087Z,38.60
2019-05-23T19:00:24.814Z,39.00
2019-05-23T19:02:54.345Z,39.60
2019-05-23T19:05:27.393Z,40.30
2019-05-23T19:07:55.189Z,40.70
2019-05-23T19:10:24.767Z,41.30
2019-05-23T19:12:54.185Z,42.00
2019-05-23T19:15:24.807Z,42.80
2019-05-23T19:17:54.130Z,43.30
2019-05-23T19:20:23.803Z,44.00
2019-05-23T19:22:53.562Z,44.40
2019-05-23T19:25:23.866Z,44.60
2019-05-23T19:27:53.456Z,45.80
2019-05-23T19:30:22.837Z,46.40
2019-05-23T19:32:52.222Z,46.80
2019-05-23T19:35:21.924Z,47.50
2019-05-23T19:37:51.288Z,48.10
2019-05-23T19:40:20.824Z,48.80
2019-05-23T19:42:50.205Z,49.00
2019-05-23T19:45:20.528Z,49.50
2019-05-23T19:47:50.330Z,50.70
2019-05-23T19:50:32.745Z,50.20
2019-05-23T19:53:04.303Z,51.10
2019-05-23T19:55:34.019Z,51.40
2019-05-23T19:58:04.111Z,52.40
2019-05-23T20:00:34.435Z,52.30
2019-05-23T20:03:04.898Z,53.20
2019-05-23T20:05:45.166Z,53.40
2019-05-23T20:08:14.850Z,53.80
2019-05-23T20:10:44.949Z,54.50
2019-05-23T20:13:18.136Z,54.90
2019-05-23T20:15:46.234Z,55.00
2019-05-23T20:18:16.393Z,54.20
2019-05-23T20:20:46.236Z,53.90
2019-05-23T20:23:16.644Z,54.80
2019-05-23T20:25:46.387Z,55.50
2019-05-23T20:28:16.294Z,55.80
2019-05-23T20:30:50.430Z,55.80
2019-05-23T20:33:20.053Z,56.00
2019-05-23T20:35:49.793Z,57.90
2019-05-23T20:38:19.524Z,57.60
2019-05-23T20:40:48.988Z,57.90
2019-05-23T20:43:18.458Z,58.00
2019-05-23T20:45:47.845Z,59.80
2019-05-23T20:48:18.098Z,60.80
2019-05-23T20:50:47.789Z,60.40
2019-05-23T20:53:17.249Z,60.40
2019-05-23T20:55:46.662Z,60.10
2019-05-23T20:58:17.293Z,59.60
2019-05-23T21:00:51.819Z,60.90
2019-05-23T21:03:21.726Z,61.10
2019-05-23T21:05:51.360Z,59.70
2019-05-23T21:08:21.256Z,61.50
2019-05-23T21:10:50.880Z,62.90
2019-05-23T21:13:20.357Z,64.10
2019-05-23T21:15:49.955Z,63.20
2019-05-23T21:18:19.380Z,63.70
2019-05-23T21:20:48.932Z,62.80
2019-05-23T21:23:18.607Z,63.80
2019-05-23T21:25:49.984Z,61.80
2019-05-23T21:28:20.305Z,63.50
2019-05-23T21:30:49.760Z,63.90
2019-05-23T21:33:19.086Z,64.20
2019-05-23T21:35:48.487Z,63.80
2019-05-23T21:38:17.810Z,63.80
2019-05-23T21:40:47.371Z,63.10
2019-05-23T21:43:16.980Z,61.90
2019-05-23T21:45:46.425Z,63.30
2019-05-23T21:48:16.396Z,64.10
2019-05-23T21:50:45.798Z,64.20
2019-05-23T21:53:15.514Z,66.00
2019-05-23T21:55:45.197Z,66.50
2019-05-23T21:58:14.946Z,66.90
2019-05-23T22:01:06.943Z,68.00
2019-05-23T22:03:42.538Z,68.70
2019-05-23T22:06:14.311Z,67.40
2019-05-23T22:08:44.322Z,67.90
2019-05-23T22:11:13.796Z,67.90
2019-05-23T22:13:43.376Z,68.60
2019-05-23T22:16:14.474Z,68.80
2019-05-23T22:18:44.487Z,68.20
2019-05-23T22:21:14.751Z,69.80
2019-05-23T22:23:44.091Z,68.70
2019-05-23T22:26:13.518Z,68.60
2019-05-23T22:28:42.900Z,68.60
2019-05-23T22:31:12.640Z,69.80
2019-05-23T22:33:46.455Z,71.10
2019-05-23T22:36:16.217Z,70.70
2019-05-23T22:38:45.740Z,71.40
2019-05-23T22:41:15.142Z,71.90
2019-05-23T22:43:44.719Z,72.60
2019-05-23T22:46:15.257Z,72.00
2019-05-23T22:48:44.604Z,74.70
2019-05-23T22:51:14.340Z,73.30
2019-05-23T22:53:43.888Z,73.70
2019-05-23T22:56:13.210Z,73.40
2019-05-23T22:58:43.177Z,73.90
2019-05-23T23:01:12.906Z,73.80
2019-05-23T23:03:42.358Z,74.40
2019-05-23T23:06:12.055Z,75.60
2019-05-23T23:08:41.513Z,75.70
2019-05-23T23:11:11.316Z,78.10
2019-05-23T23:13:40.831Z,78.60
2019-05-23T23:16:10.601Z,79.30
2019-05-23T23:18:39.960Z,79.40
2019-05-23T23:21:09.543Z,80.20
2019-05-23T23:23:38.859Z,81.20
2019-05-23T23:26:08.579Z,80.50
2019-05-23T23:28:37.982Z,80.20
2019-05-23T23:31:07.685Z,81.20
2019-05-23T23:33:37.179Z,81.90
2019-05-23T23:36:06.503Z,82.40
2019-05-23T23:38:36.090Z,82.10
2019-05-23T23:41:05.812Z,82.00
2019-05-23T23:43:35.116Z,81.50
2019-05-23T23:46:22.408Z,82.10
2019-05-23T23:49:09.420Z,82.40
2019-05-23T23:51:56.409Z,82.10
2019-05-23T23:54:43.991Z,82.60
2019-05-23T23:57:31.804Z,82.70
